createdAt,value
2022-08-27T00:01:51.987Z,100.00
2022-08-27T00:06:53.678Z,100.00
2022-08-27T00:11:58.515Z,100.00
2022-08-27T00:17:00.086Z,100.00
2022-08-27T00:22:01.667Z,100.00
2022-08-27T00:27:04.452Z,100.00
2022-08-27T00:32:08.963Z,100.00
2022-08-27T00:37:11.058Z,100.00
2022-08-27T00:42:12.640Z,100.00
2022-08-27T00:47:19.912Z,100.00
2022-08-27T00:52:32.425Z,100.00
2022-08-27T00:57:35.854Z,100.00
2022-08-27T01:02:38.842Z,100.00
2022-08-27T01:07:42.958Z,100.00
2022-08-27T01:12:44.809Z,100.00
2022-08-27T01:17:57.100Z,100.00
2022-08-27T01:23:22.351Z,100.00
2022-08-27T01:28:26.850Z,100.00
2022-08-27T01:33:37.958Z,100.00
2022-08-27T01:38:39.481Z,100.00
2022-08-27T01:43:40.980Z,100.00
2022-08-27T01:48:42.485Z,100.00
2022-08-27T01:53:44.226Z,100.00
2022-08-27T01:58:45.801Z,100.00
2022-08-27T02:03:48.324Z,100.00
2022-08-27T02:08:50.534Z,100.00
2022-08-27T02:13:52.365Z,100.00
2022-08-27T02:18:54.556Z,100.00
2022-08-27T02:23:57.681Z,100.00
2022-08-27T02:28:59.258Z,100.00
2022-08-27T02:34:01.062Z,100.00
2022-08-27T02:39:03.282Z,100.00
2022-08-27T02:44:10.104Z,100.00
2022-08-27T02:49:13.284Z,100.00
2022-08-27T02:54:14.810Z,100.00
2022-08-27T02:59:16.843Z,100.00
2022-08-27T03:04:19.858Z,100.00
2022-08-27T03:09:21.630Z,100.00
2022-08-27T03:14:23.163Z,100.00
2022-08-27T03:19:25.470Z,100.00
2022-08-27T03:24:26.995Z,100.00
2022-08-27T03:29:31.014Z,100.00
2022-08-27T03:34:37.013Z,100.00
2022-08-27T03:39:38.549Z,100.00
2022-08-27T03:44:40.157Z,100.00
2022-08-27T03:49:41.731Z,100.00
2022-08-27T03:54:43.330Z,100.00
2022-08-27T03:59:44.989Z,100.00
2022-08-27T04:04:46.491Z,100.00
2022-08-27T04:09:48.002Z,100.00
2022-08-27T04:14:49.630Z,100.00
2022-08-27T04:19:52.553Z,100.00
2022-08-27T04:24:55.417Z,100.00
2022-08-27T04:29:59.560Z,100.00
2022-08-27T04:35:01.352Z,100.00
2022-08-27T04:40:03.732Z,100.00
2022-08-27T04:45:05.856Z,100.00
2022-08-27T04:50:07.648Z,100.00
2022-08-27T04:55:10.085Z,100.00
2022-08-27T05:00:12.537Z,100.00
2022-08-27T05:05:16.027Z,100.00
2022-08-27T05:10:17.993Z,100.00
2022-08-27T05:15:19.496Z,100.00
2022-08-27T05:20:21.010Z,100.00
2022-08-27T05:25:24.237Z,100.00
2022-08-27T05:30:25.708Z,100.00
2022-08-27T05:35:27.252Z,100.00
2022-08-27T05:40:28.835Z,100.00
2022-08-27T05:45:30.375Z,100.00
2022-08-27T05:50:31.901Z,100.00
2022-08-27T05:55:39.152Z,100.00
2022-08-27T06:01:02.535Z,100.00
2022-08-27T06:06:11.061Z,100.00
2022-08-27T06:11:12.593Z,100.00
2022-08-27T06:16:16.900Z,100.00
2022-08-27T06:21:24.239Z,100.00
2022-08-27T06:26:27.158Z,100.00
2022-08-27T06:31:28.787Z,100.00
2022-08-27T06:36:30.865Z,100.00
2022-08-27T06:41:34.077Z,100.00
2022-08-27T06:46:37.185Z,100.00
2022-08-27T06:51:39.566Z,100.00
2022-08-27T06:56:42.376Z,100.00
2022-08-27T07:01:46.820Z,100.00
2022-08-27T07:06:49.123Z,100.00
2022-08-27T07:11:50.934Z,100.00
2022-08-27T07:16:52.559Z,100.00
2022-08-27T07:21:54.717Z,100.00
2022-08-27T07:26:56.321Z,100.00
2022-08-27T07:31:57.875Z,100.00
2022-08-27T07:36:59.433Z,100.00
2022-08-27T07:42:19.392Z,100.00
2022-08-27T07:47:20.909Z,100.00
2022-08-27T07:52:26.300Z,100.00
2022-08-27T07:57:28.177Z,100.00
2022-08-27T08:02:30.817Z,100.00
2022-08-27T08:07:34.354Z,100.00
2022-08-27T08:12:37.299Z,100.00
2022-08-27T08:17:39.268Z,100.00
2022-08-27T08:22:40.813Z,100.00
2022-08-27T08:27:42.510Z,100.00
2022-08-27T08:32:44.122Z,100.00
2022-08-27T08:37:46.173Z,97.42
2022-08-27T08:42:53.008Z,94.99
2022-08-27T08:48:04.889Z,92.62
2022-08-27T08:53:19.979Z,90.61
2022-08-27T08:58:48.017Z,88.94
2022-08-27T09:03:59.258Z,85.41
2022-08-27T09:09:31.639Z,81.67
2022-08-27T09:14:41.551Z,82.46
2022-08-27T09:19:47.809Z,79.40
2022-08-27T09:25:25.544Z,75.97
2022-08-27T09:30:31.031Z,74.82
2022-08-27T09:35:46.150Z,74.20
2022-08-27T09:40:51.073Z,73.22
2022-08-27T09:45:56.662Z,72.51
2022-08-27T09:51:02.711Z,66.66
2022-08-27T09:56:07.805Z,54.04
2022-08-27T10:01:29.454Z,50.01
2022-08-27T10:06:31.897Z,50.94
2022-08-27T10:11:44.015Z,51.78
2022-08-27T10:17:19.799Z,53.37
2022-08-27T10:22:32.654Z,52.72
2022-08-27T10:28:01.913Z,49.94
2022-08-27T10:33:19.240Z,44.30
2022-08-27T10:38:42.375Z,41.39
2022-08-27T10:43:52.069Z,41.07
2022-08-27T10:49:21.587Z,39.25
2022-08-27T10:54:39.855Z,40.82
2022-08-27T10:59:57.921Z,39.46
2022-08-27T11:05:07.441Z,39.46
2022-08-27T11:10:21.036Z,41.36
2022-08-27T11:15:28.810Z,37.98
2022-08-27T11:20:54.175Z,39.14
2022-08-27T11:26:02.695Z,38.38
2022-08-27T11:31:31.850Z,39.74
2022-08-27T11:36:54.259Z,39.15
2022-08-27T11:41:59.292Z,40.29
2022-08-27T11:47:27.961Z,40.11
2022-08-27T11:52:35.235Z,41.32
2022-08-27T11:57:37.640Z,42.37
2022-08-27T12:02:39.551Z,39.43
2022-08-27T12:07:44.947Z,39.33
2022-08-27T12:13:21.180Z,40.21
2022-08-27T12:19:00.064Z,40.65
2022-08-27T12:24:23.587Z,40.47
2022-08-27T12:29:43.937Z,39.22
2022-08-27T12:34:59.531Z,41.27
2022-08-27T12:40:07.072Z,40.19
2022-08-27T12:45:17.835Z,38.43
2022-08-27T12:50:23.961Z,39.43
2022-08-27T12:55:49.568Z,39.15
2022-08-27T13:01:11.125Z,41.25
2022-08-27T13:06:36.796Z,39.78
2022-08-27T13:11:55.656Z,40.24
2022-08-27T13:17:02.885Z,39.36
2022-08-27T13:22:07.065Z,39.88
2022-08-27T13:27:08.578Z,39.24
2022-08-27T13:32:14.217Z,40.07
2022-08-27T13:37:26.242Z,39.22
2022-08-27T13:42:28.502Z,39.75
2022-08-27T13:47:43.074Z,39.44
2022-08-27T13:53:23.197Z,39.01
2022-08-27T13:58:28.993Z,40.05
2022-08-27T14:03:36.494Z,40.23
2022-08-27T14:08:39.958Z,39.70
2022-08-27T14:13:45.909Z,42.08
2022-08-27T14:19:02.442Z,42.11
2022-08-27T14:24:04.597Z,41.82
2022-08-27T14:29:12.529Z,41.87
2022-08-27T14:34:15.670Z,41.22
2022-08-27T14:39:17.434Z,42.11
2022-08-27T14:44:22.320Z,43.13
2022-08-27T14:49:31.781Z,43.00
2022-08-27T14:54:33.875Z,43.08
2022-08-27T14:59:36.376Z,43.01
2022-08-27T15:04:38.660Z,43.88
2022-08-27T15:09:40.411Z,45.20
2022-08-27T15:14:43.339Z,45.17
2022-08-27T15:19:44.852Z,44.84
2022-08-27T15:24:51.271Z,45.61
2022-08-27T15:29:53.011Z,46.25
2022-08-27T15:34:56.132Z,46.39
2022-08-27T15:40:00.521Z,45.44
2022-08-27T15:45:02.783Z,46.14
2022-08-27T15:50:05.648Z,47.72
2022-08-27T15:55:22.439Z,47.99
2022-08-27T16:00:24.742Z,48.59
2022-08-27T16:05:28.536Z,48.85
2022-08-27T16:10:30.058Z,50.00
2022-08-27T16:15:34.091Z,51.26
2022-08-27T16:20:36.845Z,52.74
2022-08-27T16:25:38.362Z,53.59
2022-08-27T16:30:41.018Z,54.86
2022-08-27T16:35:42.614Z,56.30
2022-08-27T16:40:50.982Z,56.93
2022-08-27T16:45:54.859Z,58.96
2022-08-27T16:50:58.579Z,59.75
2022-08-27T16:56:00.542Z,61.44
2022-08-27T17:01:08.537Z,61.72
2022-08-27T17:06:10.711Z,64.17
2022-08-27T17:11:19.075Z,63.80
2022-08-27T17:16:24.753Z,65.41
2022-08-27T17:21:30.024Z,66.61
2022-08-27T17:26:33.725Z,66.60
2022-08-27T17:31:38.366Z,67.45
2022-08-27T17:36:39.898Z,69.67
2022-08-27T17:41:48.708Z,71.06
2022-08-27T17:46:52.484Z,71.31
2022-08-27T17:52:00.305Z,71.83
2022-08-27T17:57:04.277Z,73.40
2022-08-27T18:02:05.713Z,74.36
2022-08-27T18:07:07.374Z,76.51
2022-08-27T18:12:12.898Z,78.25
2022-08-27T18:17:14.492Z,79.20
2022-08-27T18:22:16.193Z,80.50
2022-08-27T18:27:18.162Z,81.56
2022-08-27T18:32:19.655Z,82.16
2022-08-27T18:37:21.284Z,83.14
2022-08-27T18:42:22.935Z,83.56
2022-08-27T18:47:24.459Z,83.68
2022-08-27T18:52:26.353Z,84.53
2022-08-27T18:57:27.850Z,86.39
2022-08-27T19:02:29.586Z,86.26
2022-08-27T19:07:32.141Z,86.83
2022-08-27T19:12:33.959Z,86.38
2022-08-27T19:17:40.173Z,87.16
2022-08-27T19:22:41.694Z,87.27
2022-08-27T19:27:44.949Z,86.82
2022-08-27T19:32:46.535Z,88.42
2022-08-27T19:37:52.697Z,89.54
2022-08-27T19:42:54.989Z,89.07
2022-08-27T19:47:56.795Z,90.58
2022-08-27T19:52:58.355Z,90.46
2022-08-27T19:57:59.986Z,91.35
2022-08-27T20:03:01.723Z,91.25
2022-08-27T20:08:04.816Z,91.48
2022-08-27T20:13:07.936Z,92.50
2022-08-27T20:18:10.000Z,92.73
2022-08-27T20:23:11.838Z,93.24
2022-08-27T20:28:37.749Z,94.15
2022-08-27T20:33:35.304Z,94.44
2022-08-27T20:38:37.117Z,93.91
2022-08-27T20:43:38.754Z,95.70
2022-08-27T20:48:40.357Z,95.97
2022-08-27T20:53:41.880Z,96.27
2022-08-27T20:59:02.199Z,96.25
2022-08-27T21:04:04.303Z,96.93
2022-08-27T21:09:06.104Z,98.25
2022-08-27T21:14:07.764Z,98.18
2022-08-27T21:19:09.777Z,98.85
2022-08-27T21:24:11.471Z,99.73
2022-08-27T21:29:14.727Z,99.77
2022-08-27T21:34:16.266Z,99.63
2022-08-27T21:39:18.056Z,100.00
2022-08-27T21:44:19.596Z,100.00
2022-08-27T21:49:21.177Z,100.00
2022-08-27T21:54:23.477Z,100.00
2022-08-27T21:59:27.752Z,100.00
2022-08-27T22:04:31.615Z,100.00
2022-08-27T22:09:33.746Z,100.00
2022-08-27T22:14:36.808Z,100.00
2022-08-27T22:19:38.331Z,100.00
2022-08-27T22:24:39.842Z,100.00
2022-08-27T22:29:41.455Z,100.00
2022-08-27T22:34:42.986Z,100.00
2022-08-27T22:39:44.529Z,100.00
2022-08-27T22:44:46.426Z,100.00
2022-08-27T22:49:48.162Z,100.00
2022-08-27T22:54:55.023Z,100.00
2022-08-27T22:59:58.209Z,100.00
2022-08-27T23:05:01.510Z,100.00
2022-08-27T23:10:08.908Z,100.00
2022-08-27T23:15:11.489Z,100.00
2022-08-27T23:20:14.460Z,100.00
2022-08-27T23:25:36.128Z,100.00
2022-08-27T23:30:38.165Z,100.00
2022-08-27T23:35:41.205Z,100.00
2022-08-27T23:40:43.245Z,100.00
2022-08-27T23:45:45.262Z,100.00
2022-08-27T23:50:46.834Z,100.00
2022-08-27T23:55:48.363Z,100.00
